sensor_id;sensor_type;location;lat;lon;timestamp;temperature;humidity
324;DHT22;149;51.094;17.002;2022-07-29T00:01:40;17.70;99.90
324;DHT22;149;51.094;17.002;2022-07-29T00:04:07;17.60;99.90
324;DHT22;149;51.094;17.002;2022-07-29T00:06:35;17.60;99.90
324;DHT22;149;51.094;17.002;2022-07-29T00:09:02;17.60;99.90
324;DHT22;149;51.094;17.002;2022-07-29T00:11:30;17.50;99.90
324;DHT22;149;51.094;17.002;2022-07-29T00:13:57;17.50;99.90
324;DHT22;149;51.094;17.002;2022-07-29T00:16:25;17.50;99.90
324;DHT22;149;51.094;17.002;2022-07-29T00:18:52;17.50;99.90
324;DHT22;149;51.094;17.002;2022-07-29T00:21:19;17.60;99.90
324;DHT22;149;51.094;17.002;2022-07-29T00:23:47;17.50;99.90
324;DHT22;149;51.094;17.002;2022-07-29T00:26:14;17.50;99.90
324;DHT22;149;51.094;17.002;2022-07-29T00:28:41;17.50;99.90
324;DHT22;149;51.094;17.002;2022-07-29T00:31:08;17.40;99.90
324;DHT22;149;51.094;17.002;2022-07-29T00:33:36;17.40;99.90
324;DHT22;149;51.094;17.002;2022-07-29T00:36:03;17.30;99.90
324;DHT22;149;51.094;17.002;2022-07-29T00:38:31;17.30;99.90
324;DHT22;149;51.094;17.002;2022-07-29T00:40:58;17.30;99.90
324;DHT22;149;51.094;17.002;2022-07-29T00:43:25;17.20;99.90
324;DHT22;149;51.094;17.002;2022-07-29T00:45:52;17.30;99.90
324;DHT22;149;51.094;17.002;2022-07-29T00:48:19;17.20;99.90
324;DHT22;149;51.094;17.002;2022-07-29T00:50:47;17.10;99.90
324;DHT22;149;51.094;17.002;2022-07-29T00:53:15;17.00;99.90
324;DHT22;149;51.094;17.002;2022-07-29T00:55:44;17.00;99.90
324;DHT22;149;51.094;17.002;2022-07-29T00:58:12;17.00;99.90
324;DHT22;149;51.094;17.002;2022-07-29T01:00:42;17.00;99.90
324;DHT22;149;51.094;17.002;2022-07-29T01:03:11;16.90;99.90
324;DHT22;149;51.094;17.002;2022-07-29T01:05:38;16.80;99.90
324;DHT22;149;51.094;17.002;2022-07-29T01:08:17;16.80;99.90
324;DHT22;149;51.094;17.002;2022-07-29T01:10:45;16.60;99.90
324;DHT22;149;51.094;17.002;2022-07-29T01:13:15;16.70;99.90
324;DHT22;149;51.094;17.002;2022-07-29T01:15:57;16.60;99.90
324;DHT22;149;51.094;17.002;2022-07-29T01:18:35;16.60;99.90
324;DHT22;149;51.094;17.002;2022-07-29T01:29:14;16.40;99.90
324;DHT22;149;51.094;17.002;2022-07-29T01:31:57;16.40;99.90
324;DHT22;149;51.094;17.002;2022-07-29T01:34:41;16.30;99.90
324;DHT22;149;51.094;17.002;2022-07-29T01:39:49;16.30;99.90
324;DHT22;149;51.094;17.002;2022-07-29T01:44:55;16.40;99.90
324;DHT22;149;51.094;17.002;2022-07-29T01:47:29;16.30;99.90
324;DHT22;149;51.094;17.002;2022-07-29T01:50:04;16.30;99.90
324;DHT22;149;51.094;17.002;2022-07-29T01:52:56;16.20;99.90
324;DHT22;149;51.094;17.002;2022-07-29T01:55:29;16.10;99.90
324;DHT22;149;51.094;17.002;2022-07-29T01:57:58;16.10;99.90
324;DHT22;149;51.094;17.002;2022-07-29T02:00:27;16.10;99.90
324;DHT22;149;51.094;17.002;2022-07-29T02:02:59;16.00;99.90
324;DHT22;149;51.094;17.002;2022-07-29T02:05:29;16.00;99.90
324;DHT22;149;51.094;17.002;2022-07-29T02:07:58;16.00;99.90
324;DHT22;149;51.094;17.002;2022-07-29T02:10:29;15.90;99.90
324;DHT22;149;51.094;17.002;2022-07-29T02:12:58;16.00;99.90
324;DHT22;149;51.094;17.002;2022-07-29T02:15:29;16.10;99.90
324;DHT22;149;51.094;17.002;2022-07-29T02:18:04;16.00;99.90
324;DHT22;149;51.094;17.002;2022-07-29T02:20:34;15.70;99.90
324;DHT22;149;51.094;17.002;2022-07-29T02:23:02;15.70;99.90
324;DHT22;149;51.094;17.002;2022-07-29T02:25:30;15.80;99.90
324;DHT22;149;51.094;17.002;2022-07-29T02:28:05;15.80;99.90
324;DHT22;149;51.094;17.002;2022-07-29T02:30:33;15.70;99.90
324;DHT22;149;51.094;17.002;2022-07-29T02:33:04;15.60;99.90
324;DHT22;149;51.094;17.002;2022-07-29T02:35:32;15.50;99.90
324;DHT22;149;51.094;17.002;2022-07-29T02:38:02;15.50;99.90
324;DHT22;149;51.094;17.002;2022-07-29T02:40:48;15.50;99.90
324;DHT22;149;51.094;17.002;2022-07-29T02:43:19;15.50;99.90
324;DHT22;149;51.094;17.002;2022-07-29T02:45:49;15.50;99.90
324;DHT22;149;51.094;17.002;2022-07-29T02:48:22;15.40;99.90
324;DHT22;149;51.094;17.002;2022-07-29T02:50:57;15.40;99.90
324;DHT22;149;51.094;17.002;2022-07-29T02:53:32;15.30;99.90
324;DHT22;149;51.094;17.002;2022-07-29T02:56:04;15.30;99.90
324;DHT22;149;51.094;17.002;2022-07-29T02:58:42;15.30;99.90
324;DHT22;149;51.094;17.002;2022-07-29T03:01:22;15.20;99.90
324;DHT22;149;51.094;17.002;2022-07-29T03:03:52;15.20;99.90
324;DHT22;149;51.094;17.002;2022-07-29T03:06:22;15.10;99.90
324;DHT22;149;51.094;17.002;2022-07-29T03:09:06;15.20;99.90
324;DHT22;149;51.094;17.002;2022-07-29T03:11:39;15.20;99.90
324;DHT22;149;51.094;17.002;2022-07-29T03:14:19;15.10;99.90
324;DHT22;149;51.094;17.002;2022-07-29T03:16:48;15.00;99.90
324;DHT22;149;51.094;17.002;2022-07-29T03:19:16;15.10;99.90
324;DHT22;149;51.094;17.002;2022-07-29T03:21:44;15.00;99.90
324;DHT22;149;51.094;17.002;2022-07-29T03:24:34;15.10;99.90
324;DHT22;149;51.094;17.002;2022-07-29T03:27:03;15.10;99.90
324;DHT22;149;51.094;17.002;2022-07-29T03:29:31;15.10;99.90
324;DHT22;149;51.094;17.002;2022-07-29T03:32:02;15.10;99.90
324;DHT22;149;51.094;17.002;2022-07-29T03:34:33;15.00;99.90
324;DHT22;149;51.094;17.002;2022-07-29T03:37:00;15.10;99.90
324;DHT22;149;51.094;17.002;2022-07-29T03:39:31;15.10;99.90
324;DHT22;149;51.094;17.002;2022-07-29T03:42:01;15.20;99.90
324;DHT22;149;51.094;17.002;2022-07-29T03:44:29;15.10;99.90
324;DHT22;149;51.094;17.002;2022-07-29T03:46:59;15.30;99.90
324;DHT22;149;51.094;17.002;2022-07-29T03:49:29;15.40;99.90
324;DHT22;149;51.094;17.002;2022-07-29T03:51:58;15.50;99.90
324;DHT22;149;51.094;17.002;2022-07-29T03:54:25;15.60;99.90
324;DHT22;149;51.094;17.002;2022-07-29T03:56:54;15.60;99.90
324;DHT22;149;51.094;17.002;2022-07-29T03:59:22;15.50;99.90
324;DHT22;149;51.094;17.002;2022-07-29T04:01:50;15.60;99.90
324;DHT22;149;51.094;17.002;2022-07-29T04:04:18;15.60;99.90
324;DHT22;149;51.094;17.002;2022-07-29T04:06:46;15.70;99.90
324;DHT22;149;51.094;17.002;2022-07-29T04:09:14;15.80;99.90
324;DHT22;149;51.094;17.002;2022-07-29T04:11:41;15.80;99.90
324;DHT22;149;51.094;17.002;2022-07-29T04:14:31;15.80;99.90
324;DHT22;149;51.094;17.002;2022-07-29T04:17:00;16.00;99.90
324;DHT22;149;51.094;17.002;2022-07-29T04:19:27;15.90;99.90
324;DHT22;149;51.094;17.002;2022-07-29T04:21:55;15.90;99.90
324;DHT22;149;51.094;17.002;2022-07-29T04:24:22;16.00;99.90
324;DHT22;149;51.094;17.002;2022-07-29T04:26:50;16.10;99.90
324;DHT22;149;51.094;17.002;2022-07-29T04:29:17;16.40;99.90
324;DHT22;149;51.094;17.002;2022-07-29T04:31:44;16.40;99.90
324;DHT22;149;51.094;17.002;2022-07-29T04:34:12;16.60;99.90
324;DHT22;149;51.094;17.002;2022-07-29T04:36:40;16.80;99.90
324;DHT22;149;51.094;17.002;2022-07-29T04:39:07;17.00;99.90
324;DHT22;149;51.094;17.002;2022-07-29T04:41:34;17.20;99.90
324;DHT22;149;51.094;17.002;2022-07-29T04:44:01;17.40;99.90
324;DHT22;149;51.094;17.002;2022-07-29T04:46:33;17.40;99.90
324;DHT22;149;51.094;17.002;2022-07-29T04:49:00;17.50;99.90
324;DHT22;149;51.094;17.002;2022-07-29T04:51:28;17.80;99.90
324;DHT22;149;51.094;17.002;2022-07-29T04:53:55;18.00;99.90
324;DHT22;149;51.094;17.002;2022-07-29T04:56:22;18.20;99.90
324;DHT22;149;51.094;17.002;2022-07-29T04:58:49;18.50;99.90
324;DHT22;149;51.094;17.002;2022-07-29T05:01:16;18.60;99.90
324;DHT22;149;51.094;17.002;2022-07-29T05:03:45;18.70;99.90
324;DHT22;149;51.094;17.002;2022-07-29T05:06:12;18.70;99.90
324;DHT22;149;51.094;17.002;2022-07-29T05:08:42;18.70;99.90
324;DHT22;149;51.094;17.002;2022-07-29T05:11:10;18.60;99.90
324;DHT22;149;51.094;17.002;2022-07-29T05:13:43;18.70;99.90
324;DHT22;149;51.094;17.002;2022-07-29T05:16:13;18.90;99.90
324;DHT22;149;51.094;17.002;2022-07-29T05:18:40;19.10;99.90
324;DHT22;149;51.094;17.002;2022-07-29T05:21:08;19.10;99.90
324;DHT22;149;51.094;17.002;2022-07-29T05:23:36;19.10;99.90
324;DHT22;149;51.094;17.002;2022-07-29T05:26:03;19.10;99.90
324;DHT22;149;51.094;17.002;2022-07-29T05:28:34;19.10;99.90
324;DHT22;149;51.094;17.002;2022-07-29T05:31:04;19.00;99.90
324;DHT22;149;51.094;17.002;2022-07-29T05:33:32;18.90;99.90
324;DHT22;149;51.094;17.002;2022-07-29T05:36:03;19.00;99.90
324;DHT22;149;51.094;17.002;2022-07-29T05:38:35;18.90;99.90
324;DHT22;149;51.094;17.002;2022-07-29T05:41:04;19.00;99.90
324;DHT22;149;51.094;17.002;2022-07-29T05:43:31;18.80;99.90
324;DHT22;149;51.094;17.002;2022-07-29T05:45:59;18.90;99.90
324;DHT22;149;51.094;17.002;2022-07-29T05:48:26;19.00;99.90
324;DHT22;149;51.094;17.002;2022-07-29T05:50:54;19.00;99.90
324;DHT22;149;51.094;17.002;2022-07-29T05:53:21;18.90;99.90
324;DHT22;149;51.094;17.002;2022-07-29T05:55:49;19.00;99.90
324;DHT22;149;51.094;17.002;2022-07-29T05:58:17;19.00;99.90
324;DHT22;149;51.094;17.002;2022-07-29T06:00:44;19.20;99.90
324;DHT22;149;51.094;17.002;2022-07-29T06:03:12;19.50;99.90
324;DHT22;149;51.094;17.002;2022-07-29T06:05:39;19.50;99.90
324;DHT22;149;51.094;17.002;2022-07-29T06:08:07;19.30;99.90
324;DHT22;149;51.094;17.002;2022-07-29T06:10:35;19.40;99.90
324;DHT22;149;51.094;17.002;2022-07-29T06:13:02;19.50;99.90
324;DHT22;149;51.094;17.002;2022-07-29T06:15:30;19.70;99.90
324;DHT22;149;51.094;17.002;2022-07-29T06:17:58;20.10;99.90
324;DHT22;149;51.094;17.002;2022-07-29T06:20:31;20.10;99.90
324;DHT22;149;51.094;17.002;2022-07-29T06:22:59;20.10;99.90
324;DHT22;149;51.094;17.002;2022-07-29T06:25:27;20.20;99.90
324;DHT22;149;51.094;17.002;2022-07-29T06:27:58;20.40;99.90
324;DHT22;149;51.094;17.002;2022-07-29T06:30:25;20.60;99.90
324;DHT22;149;51.094;17.002;2022-07-29T06:32:53;21.10;99.90
324;DHT22;149;51.094;17.002;2022-07-29T06:35:20;21.80;99.90
324;DHT22;149;51.094;17.002;2022-07-29T06:38:08;22.00;99.90
324;DHT22;149;51.094;17.002;2022-07-29T06:40:55;22.00;99.90
324;DHT22;149;51.094;17.002;2022-07-29T06:43:34;21.90;99.90
324;DHT22;149;51.094;17.002;2022-07-29T06:46:21;21.90;99.90
324;DHT22;149;51.094;17.002;2022-07-29T06:48:50;22.00;99.90
324;DHT22;149;51.094;17.002;2022-07-29T06:51:19;22.20;99.90
324;DHT22;149;51.094;17.002;2022-07-29T06:53:51;23.00;99.90
324;DHT22;149;51.094;17.002;2022-07-29T06:56:32;23.40;99.90
324;DHT22;149;51.094;17.002;2022-07-29T06:59:06;24.10;99.90
324;DHT22;149;51.094;17.002;2022-07-29T07:01:34;24.50;99.90
324;DHT22;149;51.094;17.002;2022-07-29T07:04:02;24.50;99.90
324;DHT22;149;51.094;17.002;2022-07-29T07:06:30;24.10;99.90
324;DHT22;149;51.094;17.002;2022-07-29T07:08:57;23.60;99.90
324;DHT22;149;51.094;17.002;2022-07-29T07:11:24;23.60;99.90
324;DHT22;149;51.094;17.002;2022-07-29T07:13:52;23.50;99.90
324;DHT22;149;51.094;17.002;2022-07-29T07:16:19;23.70;99.90
324;DHT22;149;51.094;17.002;2022-07-29T07:18:46;24.00;99.90
324;DHT22;149;51.094;17.002;2022-07-29T07:21:13;24.70;99.90
324;DHT22;149;51.094;17.002;2022-07-29T07:23:45;25.80;99.90
324;DHT22;149;51.094;17.002;2022-07-29T07:26:13;26.90;99.90
324;DHT22;149;51.094;17.002;2022-07-29T07:28:41;26.60;99.90
324;DHT22;149;51.094;17.002;2022-07-29T07:31:08;26.40;99.90
324;DHT22;149;51.094;17.002;2022-07-29T07:33:36;26.60;99.90
324;DHT22;149;51.094;17.002;2022-07-29T07:36:04;26.50;99.90
324;DHT22;149;51.094;17.002;2022-07-29T07:38:31;26.10;99.90
324;DHT22;149;51.094;17.002;2022-07-29T07:40:58;26.10;99.90
324;DHT22;149;51.094;17.002;2022-07-29T07:43:25;25.70;99.90
324;DHT22;149;51.094;17.002;2022-07-29T07:45:52;25.30;99.90
324;DHT22;149;51.094;17.002;2022-07-29T07:48:20;25.00;99.90
324;DHT22;149;51.094;17.002;2022-07-29T07:50:47;24.80;99.90
324;DHT22;149;51.094;17.002;2022-07-29T07:53:16;24.90;99.90
324;DHT22;149;51.094;17.002;2022-07-29T07:55:43;24.80;99.90
324;DHT22;149;51.094;17.002;2022-07-29T07:58:30;25.00;99.90
324;DHT22;149;51.094;17.002;2022-07-29T08:00:58;24.80;99.90
324;DHT22;149;51.094;17.002;2022-07-29T08:03:25;24.50;99.90
324;DHT22;149;51.094;17.002;2022-07-29T08:05:52;24.40;99.90
324;DHT22;149;51.094;17.002;2022-07-29T08:08:21;24.80;99.90
324;DHT22;149;51.094;17.002;2022-07-29T08:10:48;25.00;99.90
324;DHT22;149;51.094;17.002;2022-07-29T08:13:20;25.20;99.90
324;DHT22;149;51.094;17.002;2022-07-29T08:15:48;25.10;99.90
324;DHT22;149;51.094;17.002;2022-07-29T08:18:28;25.40;99.90
324;DHT22;149;51.094;17.002;2022-07-29T08:20:57;26.30;99.90
324;DHT22;149;51.094;17.002;2022-07-29T08:23:24;26.40;99.90
324;DHT22;149;51.094;17.002;2022-07-29T08:26:12;26.40;99.90
324;DHT22;149;51.094;17.002;2022-07-29T08:28:42;26.70;99.90
324;DHT22;149;51.094;17.002;2022-07-29T08:31:16;26.90;99.90
324;DHT22;149;51.094;17.002;2022-07-29T08:33:43;27.40;99.80
324;DHT22;149;51.094;17.002;2022-07-29T08:36:10;27.90;98.60
324;DHT22;149;51.094;17.002;2022-07-29T08:38:39;27.40;99.00
324;DHT22;149;51.094;17.002;2022-07-29T08:41:07;27.50;98.70
324;DHT22;149;51.094;17.002;2022-07-29T08:43:34;26.90;99.70
324;DHT22;149;51.094;17.002;2022-07-29T08:46:04;27.40;99.00
324;DHT22;149;51.094;17.002;2022-07-29T08:48:32;27.40;98.50
324;DHT22;149;51.094;17.002;2022-07-29T08:51:00;27.40;98.50
324;DHT22;149;51.094;17.002;2022-07-29T08:53:30;27.70;98.50
324;DHT22;149;51.094;17.002;2022-07-29T08:55:58;28.10;97.80
324;DHT22;149;51.094;17.002;2022-07-29T08:58:27;28.10;97.30
324;DHT22;149;51.094;17.002;2022-07-29T09:01:03;27.70;97.80
324;DHT22;149;51.094;17.002;2022-07-29T09:03:36;27.10;98.50
324;DHT22;149;51.094;17.002;2022-07-29T09:06:04;27.30;98.90
324;DHT22;149;51.094;17.002;2022-07-29T09:08:32;27.50;98.50
324;DHT22;149;51.094;17.002;2022-07-29T09:11:03;29.10;96.10
324;DHT22;149;51.094;17.002;2022-07-29T09:13:31;30.80;93.80
324;DHT22;149;51.094;17.002;2022-07-29T09:15:58;30.30;93.10
324;DHT22;149;51.094;17.002;2022-07-29T09:18:43;30.30;92.20
324;DHT22;149;51.094;17.002;2022-07-29T09:21:12;30.50;92.00
324;DHT22;149;51.094;17.002;2022-07-29T09:24:11;29.80;91.90
324;DHT22;149;51.094;17.002;2022-07-29T09:26:44;29.40;92.80
324;DHT22;149;51.094;17.002;2022-07-29T09:29:21;28.40;93.80
324;DHT22;149;51.094;17.002;2022-07-29T09:31:52;27.50;95.60
324;DHT22;149;51.094;17.002;2022-07-29T09:34:25;27.20;96.40
324;DHT22;149;51.094;17.002;2022-07-29T09:36:54;27.20;96.60
324;DHT22;149;51.094;17.002;2022-07-29T09:39:37;26.80;97.00
324;DHT22;149;51.094;17.002;2022-07-29T09:42:12;26.90;97.50
324;DHT22;149;51.094;17.002;2022-07-29T09:44:47;26.80;97.80
324;DHT22;149;51.094;17.002;2022-07-29T09:47:18;27.00;97.80
324;DHT22;149;51.094;17.002;2022-07-29T09:52:22;27.20;97.50
